NOAA ERDDAP
Easier access to scientific data
   
Brought to you by NOAA NMFS SWFSC ERD    

ERDDAP > Out-Of-Date Datasets

The outOfDate index is a simplistic measure of how out-of-date a dataset is: <0: unexpectedly from the future(!), <1: up-to-date, >=1: out-of-date, >=2: very out-of-date. For out-of-date datasets, there is presumably a problem with the data source, so ERDDAP is unable to access data from more recent time points.

78 matching datasets. This web page was generated at 2024-02-21T15:17:45Z .

outOfDate testOutOfDate maxTime datasetID title
███ 7014.0464 now-3hours 2021-09-27T21:59:00Z all_swfsc_2021 Saildrone 2021 NOAA SWFSC mission NRT collection
███ 7014.0464 now-3hours 2021-09-27T21:59:00Z sd1055_swfsc_2021 Saildrone 2021 NOAA SWFSC mission NRT, drone 1055
███ 7014.0464 now-3hours 2021-09-27T21:59:00Z sd1059_swfsc_2021 Saildrone 2021 NOAA SWFSC mission NRT, drone 1059
███ 6973.378 now-3hours 2021-10-02T23:59:00Z sd1063_hake_2021 Saildrone 2021 NWFSC Hake Survey, drone 1063
███ 6973.378 now-3hours 2021-10-02T23:59:00Z sd1064_hake_2021 Saildrone 2021 NWFSC Hake Survey, drone 1064
███ 6838.706 now-3hours 2021-10-19T19:59:00Z sd1030_arctic_2021 Saildrone 2021 Arctic OCS Single Beam Data, drone 1030
███ 6838.0396 now-3hours 2021-10-19T21:59:00Z sd1067_arctic_2021 Saildrone 2021 Arctic OCS Single Beam Data, drone 1067
███ 6832.039 now-3hours 2021-10-20T15:59:00Z sd1033_arctic_2021 Saildrone 2021 Arctic OCS Single Beam Data, drone 1033
███ 6832.039 now-3hours 2021-10-20T15:59:00Z sd1034_arctic_2021 Saildrone 2021 Arctic OCS Single Beam Data, drone 1034
███ 6768.703 now-3hours 2021-10-28T13:59:00Z sd1045_hurricane_2021 Saildrone Hurricane Monitoring 2021 NRT data, drone 1045
███ 6702.034 now-3hours 2021-11-05T21:59:00Z sd1031_hurricane_2021 Saildrone Hurricane Monitoring 2021 NRT data, drone 1031
███ 6702.034 now-3hours 2021-11-05T21:59:00Z sd1040_hurricane_2021 Saildrone Hurricane Monitoring 2021 NRT data, drone 1040
███ 6614.031 now-3hours 2021-11-16T21:59:00Z sd1048_hurricane_2021 Saildrone Hurricane Monitoring 2021 NRT data, drone 1048
███ 6614.031 now-3hours 2021-11-16T21:59:00Z sd1060_hurricane_2021 Saildrone Hurricane Monitoring 2021 NRT data, drone 1060
███ 4165.2676 now-3hours 2022-09-18T23:59:00Z sd1066_tpos_2021 Saildrone PMEL TPOS 2021 Mission, drone 1066
███ 4117.2656 now-3hours 2022-09-24T23:59:00Z sd1065_tpos_2021 Saildrone PMEL TPOS 2021 Mission, drone 1065
███ 1963.6477 now-1days 2018-10-06T23:59:00Z saildrone_arctic_2018 Saildrone Arctic 2018 data
███ 1911.8141 now-1day 2018-11-27T19:59:00Z saildrone_west_coast_survey_2018 Saildrone West Coast Survey 2018
███ 1618.8141 now-1day 2019-09-16T19:57:00Z saildrone_west_coast_survey_2019 Saildrone West Coast Survey 2019
███ 1250.4358 now-1day 2020-09-19T04:59:00Z sd1055 Saildrone 2020 Arctic OCS Single Beam Mapping drone 1055
███ 1212.8523 now-1day 2020-10-26T18:59:00Z 2020_arctic_nos_all Saildrone 2020 Arctic OCS Single Beam Mapping Collection
███ 1212.8523 now-1day 2020-10-26T18:59:00Z sd1037 Saildrone 2020 Arctic OCS Single Beam Mapping drone 1037
███ 1212.8523 now-1day 2020-10-26T18:59:00Z sd1068 Saildrone 2020 Arctic OCS Single Beam Mapping drone 1068
███ 1212.8523 now-1day 2020-10-26T18:59:00Z sd1069 Saildrone 2020 Arctic OCS Single Beam Mapping drone 1069
███ 1210.4453 now-1day 2020-10-29T04:45:00Z sd1043 Saildrone 2020 Fisheries Pollock Survey drone 1043
███ 1210.4453 now-1day 2020-10-29T04:45:00Z sd1049 Saildrone 2020 Fisheries Pollock Survey drone 1049
███ 1195.8179 now-3hours 2023-09-25T03:59:00Z sd1060_swfsc_2023 Saildrone 2023 NOAA SWFSC NRT Data, drone 1060
███ 1068.028 now-1day 2021-03-20T14:45:00Z sd1054 Saildrone Pacific Pacific Storms PMEL AOML 2020
███ 879.13873 now-3hours 2023-11-03T17:59:00Z sd1033_tpos_2023 Saildrone PMEL TPOS 2023 Mission, drone 1033
███ 871.17175 now-3hours 2023-11-04T17:53:00Z sd1079_tpos_2023 Saildrone PMEL TPOS 2023 Mission, drone 1079
███ 807.8026 now-3hours 2023-11-12T15:59:00Z sd1030_tpos_2023 Saildrone PMEL TPOS 2023 Mission, drone 1030
███ 605.4504 now-2days 2020-10-28T17:45:00Z sd1046 Saildrone 2020 Fisheries Pollock Survey drone 1046
███ 605.2212 now-2days 2020-10-29T04:45:00Z fisheries_2020_all Saildrone 2020 Fisheries Pollock Survey Collection
███ 538.6407 now-1day 2022-08-31T23:59:00Z all_swfsc_2022 Saildrone 2022 NOAA SWFSC mission NRT collection
███ 538.6407 now-1day 2022-08-31T23:59:00Z sd1076_swfsc_2022 Saildrone 2022 NOAA SWFSC Survey NRT, drone 1076
███ 538.6407 now-1day 2022-08-31T23:59:00Z sd1077_swfsc_2022 Saildrone 2022 NOAA SWFSC Survey NRT, drone 1077
███ 511.64053 now-1day 2022-09-27T23:59:00Z sd1033_tpos_2022 Saildrone PMEL TPOS 2022 Mission, drone 1033
███ 511.64053 now-1day 2022-09-27T23:59:00Z sd1052_tpos_2022 Saildrone PMEL TPOS 2022 Mission, drone 1052
███ 155.6388 now-1days 2023-09-18T23:59:00Z sd1048_swfsc_2023 Saildrone 2023 NOAA SWFSC NRT Data, drone 1048
███ 144.09706 now-1days 2023-09-30T12:59:00Z all_swfsc_2023 Saildrone 2023 NOAA SWFSC NRT Data collection
███ 144.09706 now-1days 2023-09-30T12:59:00Z sd1096_swfsc_2023 Saildrone 2023 NOAA SWFSC NRT Data, drone 1096
███ 124.04598 now-3days 2023-02-14T12:00:00Z pmelTaoDyAirt TAO/TRITON, RAMA, and PIRATA Buoys, Daily, 1977-present, Air Temperature
███ 124.04598 now-3days 2023-02-14T12:00:00Z pmelTaoDyBf TAO/TRITON, RAMA, and PIRATA Buoys, Daily, 2000-present, Buoyancy Flux
███ 124.04598 now-3days 2023-02-14T12:00:00Z pmelTaoDyBp TAO/TRITON, RAMA, and PIRATA Buoys, Daily, 1998-present, Barometric (Air) Pressure
███ 124.04598 now-3days 2023-02-14T12:00:00Z pmelTaoDyCur TAO/TRITON, RAMA, and PIRATA Buoys, Daily, 1977-present, Currents
███ 124.04598 now-3days 2023-02-14T12:00:00Z pmelTaoDyD TAO/TRITON, RAMA, and PIRATA Buoys, Daily, 1987-present, Potential Density Anomaly
███ 124.04598 now-3days 2023-02-14T12:00:00Z pmelTaoDyDyn TAO/TRITON, RAMA, and PIRATA Buoys, Daily, 1980-present, Dynamic Height
███ 124.04598 now-3days 2023-02-14T12:00:00Z pmelTaoDyEmp TAO/TRITON, RAMA, and PIRATA Buoys, Daily, 1997-present, Evaporation Minus Precipitation
███ 124.04598 now-3days 2023-02-14T12:00:00Z pmelTaoDyEvap TAO/TRITON, RAMA, and PIRATA Buoys, Daily, 1989-present, Evaporation
███ 124.04598 now-3days 2023-02-14T12:00:00Z pmelTaoDyHeat TAO/TRITON, RAMA, and PIRATA Buoys, Daily, 1980-present, Heat Content
███ 124.04598 now-3days 2023-02-14T12:00:00Z pmelTaoDyIso TAO/TRITON, RAMA, and PIRATA Buoys, Daily, 1977-present, 20C Isotherm Depth
███ 124.04598 now-3days 2023-02-14T12:00:00Z pmelTaoDyLw TAO/TRITON, RAMA, and PIRATA Buoys, Daily, 2000-present, Longwave Radiation
███ 124.04598 now-3days 2023-02-14T12:00:00Z pmelTaoDyLwnet TAO/TRITON, RAMA, and PIRATA Buoys, Daily, 2000-present, Net Longwave Radiation
███ 124.04598 now-3days 2023-02-14T12:00:00Z pmelTaoDyQlat TAO/TRITON, RAMA, and PIRATA Buoys, Daily, 1989-present, Latent Heat Flux
███ 124.04598 now-3days 2023-02-14T12:00:00Z pmelTaoDyQnet TAO/TRITON, RAMA, and PIRATA Buoys, Daily, 2000-present, Total Heat Flux
███ 124.04598 now-3days 2023-02-14T12:00:00Z pmelTaoDyQsen TAO/TRITON, RAMA, and PIRATA Buoys, Daily, 1989-present, Sensible Heat Flux
███ 124.04598 now-3days 2023-02-14T12:00:00Z pmelTaoDyRad TAO/TRITON, RAMA, and PIRATA Buoys, Daily, 1991-present, Downgoing Shortwave Radiation
███ 124.04598 now-3days 2023-02-14T12:00:00Z pmelTaoDyRain TAO/TRITON, RAMA, and PIRATA Buoys, Daily, 1997-present, Precipitation
███ 124.04598 now-3days 2023-02-14T12:00:00Z pmelTaoDyRf TAO/TRITON, RAMA, and PIRATA Buoys, Daily, 1997-present, Heat Flux Due To Rain
███ 124.04598 now-3days 2023-02-14T12:00:00Z pmelTaoDyRh TAO/TRITON, RAMA, and PIRATA Buoys, Daily, 1989-present, Relative Humidity
███ 124.04598 now-3days 2023-02-14T12:00:00Z pmelTaoDyS TAO/TRITON, RAMA, and PIRATA Buoys, Daily, 1987-present, Salinity
███ 124.04598 now-3days 2023-02-14T12:00:00Z pmelTaoDySsd TAO/TRITON, RAMA, and PIRATA Buoys, Daily, 1992-present, Sigma-Theta
███ 124.04598 now-3days 2023-02-14T12:00:00Z pmelTaoDySss TAO/TRITON, RAMA, and PIRATA Buoys, Daily, 1992-present, Sea Surface Salinity
███ 124.04598 now-3days 2023-02-14T12:00:00Z pmelTaoDySst TAO/TRITON, RAMA, and PIRATA Buoys, Daily, 1977-present, Sea Surface Temperature
███ 124.04598 now-3days 2023-02-14T12:00:00Z pmelTaoDySwnet TAO/TRITON, RAMA, and PIRATA Buoys, Daily, 1991-present, Net Shortwave Radiation
███ 124.04598 now-3days 2023-02-14T12:00:00Z pmelTaoDyT TAO/TRITON, RAMA, and PIRATA Buoys, Daily, 1977-present, Temperature
███ 124.04598 now-3days 2023-02-14T12:00:00Z pmelTaoDyTau TAO/TRITON, RAMA, and PIRATA Buoys, Daily, 1989-present, Wind Stress
███ 124.04598 now-3days 2023-02-14T12:00:00Z pmelTaoDyW TAO/TRITON, RAMA, and PIRATA Buoys, Daily, 1977-present, Wind
███ 123.71265 now-3days 2023-02-15T12:00:00Z pmelTaoDyPos TAO/TRITON, RAMA, and PIRATA Buoys, Daily, 1980-present, Position
███ 27.568228 now-24days 2022-05-01T00:00:00Z keo_hourly_temp NOBS for OceanSITES KEO in-situ TEMP data: Hourly High Resolution Data
███ 27.568228 now-24days 2022-05-01T00:00:00Z pirata_hourly_psal NOBS for OceanSITES PIRATA hourly PSAL in-situ data
███ 27.568228 now-24days 2022-05-01T00:00:00Z pirata_hourly_temp NOBS for OceanSITES PIRATA hourly TEMP in-situ data
███ 20.628605 now-73days 2020-01-07T17:59:00Z sd1068_2019 Saildrone PMEL TPOS 2019 Mission, drone 1068
███ 20.358849 now-74days 2020-01-07T01:59:00Z sd1066_2019 Saildrone PMEL TPOS 2019 Mission, drone 1066
███ 18.639565 now-81days 2020-01-03T19:59:00Z sd1067_2019 Saildrone PMEL TPOS 2019 Mission, drone 1067
███ 4.937592 now-134days 2022-05-01T00:00:00Z keo_hourly NOBS for OceanSITES KEO in-situ hourly high resolution data
███ 4.937592 now-134days 2022-05-01T00:00:00Z papa_hourly_psal NOBS for OceanSITES Papa hourly PSAL in-situ data
███ 0.5812483 now-94days 2023-12-29T00:00:00Z argo_rfromv21_realtime Argo RFROM v2.1 Real Time

This web page was generated at 2024-02-21T15:17:45Z .
This web page will refresh itself automatically every 15 minutes.

Options

You can add tabledap-like constraints to requests to this web page, for example,
https://data.pmel.noaa.gov/pmel/erddap/outOfDateDatasets.html?&outOfDate>=0.5 . Usually, the parameter values in the URL (the parts after '=' signs) must be properly percent encoded (external link): all characters other than A-Za-z0-9_-!.~'()* must be encoded as %HH, where HH is the 2 digit hexadecimal value of the character, for example, a space becomes %20. Characters above #127 must be converted to UTF-8 bytes, then each UTF-8 byte must be percent encoded (ask a programmer for help). There are websites that percent encode and decode for you (external link).

The information in the table above is also available in other file formats (.csv, .htmlTable, .itx, .json, .jsonlCSV1, .jsonlCSV, .jsonlKVP, .mat, .nc, .nccsv, .tsv, .xhtml) via a RESTful web service.


 
ERDDAP, Version 2.18
Disclaimers | Privacy Policy | Contact